Time;durP1;ratioP1;P1;durP2;ratioP2;P2;SDS_P1;SDS_P2;PMS_P1;PMS_P2;Temp;Humidity;BMP_temperature;BMP_pressure;BME280_temperature;BME280_humidity;BME280_pressure;Samples;Min_cycle;Max_cycle;Signal;HPM_P1;HPM_P2
2022/03/21 00:02:12;;;;;;;445.57;267.00;;;;;;;-2.79;51.74;101333.55;2118037;84;20998;-85
2022/03/21 00:05:13;;;;;;;109.77;57.13;;;;;;;1.42;70.25;101319.80;2117468;84;20990;-82
2022/03/21 00:08:14;;;;;;;56.57;29.67;;;;;;;4.00;47.88;101310.69;2110792;84;21003;-83
2022/03/21 00:11:14;;;;;;;43.83;22.40;;;;;;;2.59;44.55;101318.23;2118292;84;20907;-84
2022/03/21 00:14:15;;;;;;;183.93;32.80;;;;;;;1.27;44.47;101320.26;2118476;84;20971;-80
2022/03/21 00:17:15;;;;;;;43.30;23.17;;;;;;;0.31;45.33;101324.44;2111748;83;20939;-81
2022/03/21 00:20:19;;;;;;;40.40;22.70;;;;;;;-0.27;46.08;101323.25;2123073;83;21014;-83
2022/03/21 00:23:20;;;;;;;37.53;17.10;;;;;;;-0.79;46.67;101321.27;2114757;83;21016;-83
2022/03/21 00:26:20;;;;;;;36.57;17.23;;;;;;;-1.24;47.31;101330.51;2121681;83;20975;-83
2022/03/21 00:29:20;;;;;;;37.93;17.40;;;;;;;-1.64;48.18;101329.16;2120112;84;20931;-84
2022/03/21 00:32:21;;;;;;;32.77;17.27;;;;;;;-2.00;48.94;101325.08;2112506;83;21327;-83
2022/03/21 00:35:22;;;;;;;36.50;18.17;;;;;;;-2.22;49.72;101323.30;2120722;83;20911;-83
2022/03/21 00:38:22;;;;;;;32.07;16.60;;;;;;;-2.31;50.13;101329.66;2120636;84;20947;-83
2022/03/21 00:41:23;;;;;;;40.27;18.20;;;;;;;-2.43;50.35;101331.34;2110899;84;21011;-82
2022/03/21 00:44:24;;;;;;;35.93;17.60;;;;;;;-2.59;50.68;101327.22;2111745;83;21343;-83
2022/03/21 00:47:24;;;;;;;31.83;16.60;;;;;;;-2.72;51.07;101323.21;2119345;83;20971;-82
2022/03/21 00:50:25;;;;;;;31.03;15.50;;;;;;;-2.90;51.45;101328.60;2120366;83;20951;-83
2022/03/21 00:53:25;;;;;;;26.53;13.87;;;;;;;-3.04;51.99;101323.33;2118584;84;20975;-82
2022/03/21 00:56:26;;;;;;;32.17;15.70;;;;;;;-3.16;52.27;101316.95;2117348;84;20946;-82
2022/03/21 00:59:26;;;;;;;31.23;14.97;;;;;;;-3.26;52.58;101317.63;2118846;84;21349;-81
2022/03/21 01:02:27;;;;;;;34.63;15.97;;;;;;;-3.33;53.09;101316.45;2119309;84;21021;-83
2022/03/21 01:05:27;;;;;;;32.40;16.37;;;;;;;-3.33;53.40;101314.27;2118626;84;21058;-82
2022/03/21 01:08:28;;;;;;;31.53;15.43;;;;;;;-3.29;53.53;101313.84;2109927;84;21026;-81
2022/03/21 01:11:28;;;;;;;33.10;15.40;;;;;;;-3.25;53.79;101314.70;2100483;84;21002;-83
2022/03/21 01:14:30;;;;;;;39.50;16.43;;;;;;;-3.30;53.81;101320.98;2098723;84;21030;-83
2022/03/21 01:17:31;;;;;;;68.27;33.40;;;;;;;-3.37;54.20;101317.25;2109622;84;21354;-86
2022/03/21 01:23:35;;;;;;;116.83;58.97;;;;;;;3.17;70.41;101286.88;2084328;85;21443;-81
2022/03/21 01:26:36;;;;;;;57.10;29.33;;;;;;;5.17;48.00;101283.67;2101576;84;21355;-82
2022/03/21 01:29:36;;;;;;;55.73;29.00;;;;;;;3.26;44.67;101287.61;2118758;84;20963;-82
2022/03/21 01:32:37;;;;;;;52.27;27.07;;;;;;;1.66;44.72;101293.98;2110133;83;20963;-82
2022/03/21 01:35:38;;;;;;;41.13;21.80;;;;;;;0.45;45.66;101298.72;2119901;84;21006;-83
2022/03/21 01:38:39;;;;;;;42.93;20.83;;;;;;;-0.42;46.65;101305.13;2119034;83;20978;-82
2022/03/21 01:41:39;;;;;;;37.43;19.63;;;;;;;-1.11;47.71;101308.78;2110568;84;21468;-82
2022/03/21 01:44:40;;;;;;;39.43;18.30;;;;;;;-1.56;48.75;101302.64;2120983;84;21073;-81
2022/03/21 01:47:41;;;;;;;34.63;17.90;;;;;;;-1.94;49.47;101305.22;2120152;84;20935;-81
2022/03/21 01:50:41;;;;;;;36.53;18.03;;;;;;;-2.27;50.25;101309.13;2101570;83;20982;-81
2022/03/21 01:57:01;;;;;;;56.63;21.23;;;;;;;-2.67;51.74;101302.48;2109768;84;21007;-82
2022/03/21 02:00:02;;;;;;;115.33;55.87;;;;;;;-2.80;52.08;101303.25;2108714;83;20994;-83
2022/03/21 02:03:02;;;;;;;52.03;24.63;;;;;;;-2.96;52.62;101305.88;2117564;84;20994;-82
2022/03/21 02:06:03;;;;;;;50.20;19.67;;;;;;;-3.06;52.89;101307.31;2116046;83;20979;-83
2022/03/21 02:09:03;;;;;;;40.23;16.23;;;;;;;-3.16;53.33;101303.27;2110773;84;21433;-82
2022/03/21 02:12:03;;;;;;;42.57;17.53;;;;;;;-3.33;53.58;101307.88;2120551;83;20963;-82
2022/03/21 02:15:04;;;;;;;32.50;15.43;;;;;;;-3.52;53.93;101305.91;2124908;84;20962;-83
2022/03/21 02:18:05;;;;;;;32.13;15.30;;;;;;;-3.60;54.50;101304.56;2110058;83;21010;-82
2022/03/21 02:21:05;;;;;;;33.20;16.30;;;;;;;-3.70;54.65;101308.16;2118856;84;21025;-82
2022/03/21 02:24:07;;;;;;;29.20;14.90;;;;;;;-3.85;54.90;101304.50;2117144;83;20975;-82
2022/03/21 02:27:08;;;;;;;29.43;15.03;;;;;;;-3.90;55.33;101308.20;2113545;83;20974;-82
2022/03/21 02:30:09;;;;;;;29.87;15.70;;;;;;;-3.95;55.62;101307.18;2118116;84;21441;-83
2022/03/21 02:33:09;;;;;;;33.70;16.67;;;;;;;-3.96;55.91;101303.72;2119895;84;21048;-84
2022/03/21 02:36:10;;;;;;;29.47;15.40;;;;;;;-3.94;56.03;101304.80;2120304;84;20998;-84
2022/03/21 02:39:11;;;;;;;35.77;16.97;;;;;;;-3.97;56.08;101307.02;2120382;83;21326;-83
2022/03/21 02:42:11;;;;;;;35.90;16.07;;;;;;;-4.03;56.18;101310.19;2113735;83;20990;-82
2022/03/21 02:45:12;;;;;;;34.40;16.27;;;;;;;-4.10;56.48;101311.53;2111923;84;20936;-82
2022/03/21 02:48:13;;;;;;;30.60;14.83;;;;;;;-4.14;56.75;101311.95;2119316;84;21016;-82
2022/03/21 02:51:13;;;;;;;31.27;15.03;;;;;;;-4.16;57.02;101310.88;2123805;83;20978;-82
2022/03/21 02:54:18;;;;;;;37.67;15.93;;;;;;;-4.15;57.11;101307.58;2125704;84;20951;-83
2022/03/21 02:57:16;;;;;;;36.47;16.27;;;;;;;-4.23;56.94;101306.75;2125358;84;21026;-79
2022/03/21 03:00:16;;;;;;;83.20;37.70;;;;;;;-4.30;57.52;101304.27;2125586;84;21449;-81
2022/03/21 03:03:17;;;;;;;58.83;25.97;;;;;;;-4.32;57.94;101305.75;2125517;84;20955;-82
2022/03/21 03:06:17;;;;;;;59.23;20.90;;;;;;;-4.30;58.08;101304.64;2125681;84;20950;-83
2022/03/21 03:09:18;;;;;;;76.70;20.10;;;;;;;-4.29;58.07;101305.18;2118485;83;20994;-83
2022/03/21 03:12:18;;;;;;;33.70;16.23;;;;;;;-4.33;58.17;101305.58;2119210;83;21014;-83
2022/03/21 03:15:19;;;;;;;32.77;15.30;;;;;;;-4.39;58.11;101300.69;2124798;83;21029;-83
2022/03/21 03:18:19;;;;;;;35.43;15.30;;;;;;;-4.42;58.13;101298.17;2125490;84;21030;-84
2022/03/21 03:21:20;;;;;;;32.93;16.20;;;;;;;-4.47;58.35;101300.22;2112819;83;21076;-82
2022/03/21 03:24:20;;;;;;;103.40;19.63;;;;;;;-4.45;59.01;101298.74;2110649;84;21382;-83
2022/03/21 03:27:21;;;;;;;34.10;14.83;;;;;;;-4.39;59.00;101302.33;2118366;84;20955;-83
2022/03/21 03:30:21;;;;;;;77.27;19.73;;;;;;;-4.41;58.67;101305.08;2117608;84;21003;-83
2022/03/21 03:33:22;;;;;;;54.60;16.77;;;;;;;-4.45;59.00;101306.77;2117896;84;21015;-82
2022/03/21 03:36:22;;;;;;;31.57;15.43;;;;;;;-4.45;58.87;101296.56;2110095;84;20991;-82
2022/03/21 03:39:23;;;;;;;29.20;15.03;;;;;;;-4.45;59.04;101308.94;2113570;83;21402;-82
2022/03/21 03:42:23;;;;;;;35.60;16.13;;;;;;;-4.46;59.06;101304.58;2125957;83;21306;-81
2022/03/21 03:45:25;;;;;;;37.20;15.40;;;;;;;-4.46;59.18;101307.50;2113810;84;21378;-81
2022/03/21 03:48:26;;;;;;;33.60;15.93;;;;;;;-4.51;59.17;101302.80;2123862;83;21047;-83
2022/03/21 03:51:26;;;;;;;32.50;15.60;;;;;;;-4.56;59.39;101306.48;2111859;84;21370;-82
2022/03/21 03:54:27;;;;;;;32.60;15.63;;;;;;;-4.57;59.56;101305.05;2111123;84;21367;-81
2022/03/21 03:57:27;;;;;;;28.13;15.07;;;;;;;-4.61;59.47;101307.63;2118050;84;21334;-82
2022/03/21 04:00:28;;;;;;;27.07;15.33;;;;;;;-4.71;59.51;101318.81;2119034;84;20994;-82
2022/03/21 04:03:47;;;;;;;32.60;16.00;;;;;;;-4.84;59.65;101312.73;2118283;84;20998;-81
2022/03/21 04:06:47;;;;;;;29.33;13.53;;;;;;;-4.86;59.93;101310.38;2118720;84;21338;-82
2022/03/21 04:09:48;;;;;;;71.37;20.27;;;;;;;-4.86;60.15;101319.67;2118657;84;21006;-83
2022/03/21 04:12:49;;;;;;;32.30;16.33;;;;;;;-4.88;60.20;101323.69;2119365;84;21013;-82
2022/03/21 04:15:49;;;;;;;59.10;25.03;;;;;;;-4.88;60.33;101322.41;2118785;84;20931;-82
2022/03/21 04:18:50;;;;;;;58.23;21.20;;;;;;;-4.86;60.39;101317.12;2110527;84;21010;-79
2022/03/21 04:21:51;;;;;;;59.33;19.27;;;;;;;-4.87;60.33;101320.03;2117294;84;21440;-83
2022/03/21 04:24:51;;;;;;;61.47;18.30;;;;;;;-4.82;60.56;101319.27;2119686;83;21346;-83
2022/03/21 04:27:52;;;;;;;36.97;14.90;;;;;;;-4.80;60.14;101321.63;2125672;84;20951;-82
2022/03/21 04:30:52;;;;;;;35.77;17.20;;;;;;;-4.82;60.16;101316.73;2125516;84;21333;-83
2022/03/21 04:33:53;;;;;;;29.63;15.27;;;;;;;-4.91;60.41;101315.34;2112571;83;21418;-82
2022/03/21 04:36:53;;;;;;;36.03;14.87;;;;;;;-4.96;60.52;101320.66;2115504;84;21029;-82
2022/03/21 04:39:54;;;;;;;42.10;14.90;;;;;;;-5.02;60.39;101321.24;2113263;84;21046;-82
2022/03/21 04:42:54;;;;;;;30.67;15.37;;;;;;;-5.06;60.80;101325.09;2117111;84;21084;-82
2022/03/21 04:45:55;;;;;;;44.23;15.40;;;;;;;-5.06;60.99;101326.36;2109405;83;20974;-82
2022/03/21 04:48:55;;;;;;;33.97;16.10;;;;;;;-5.03;61.01;101327.07;2118059;84;20982;-83
2022/03/21 04:51:56;;;;;;;34.90;15.30;;;;;;;-5.07;60.86;101328.73;2111402;83;20979;-82
2022/03/21 04:54:56;;;;;;;43.57;18.40;;;;;;;-5.04;60.97;101322.71;2115525;84;21361;-85
2022/03/21 04:57:57;;;;;;;37.67;17.87;;;;;;;-1.42;76.04;101310.40;2111869;84;21006;-86
2022/03/21 05:00:57;;;;;;;42.10;19.70;;;;;;;3.81;63.66;101288.98;2110388;83;21002;-87
2022/03/21 05:03:58;;;;;;;43.43;18.23;;;;;;;7.19;54.06;101280.27;2119310;84;20976;-84
2022/03/21 05:06:58;;;;;;;155.90;22.57;;;;;;;8.25;44.42;101276.52;2110926;83;20974;-84
2022/03/21 05:10:00;;;;;;;37.13;17.07;;;;;;;5.32;40.65;101291.66;2103337;84;21553;-85
2022/03/21 05:13:00;;;;;;;33.27;17.63;;;;;;;2.75;41.69;101298.13;2091588;85;20987;-83
2022/03/21 05:16:01;;;;;;;79.43;19.67;;;;;;;1.07;43.42;101313.75;2091360;84;21420;-82
2022/03/21 05:19:01;;;;;;;58.87;18.53;;;;;;;-0.14;45.05;101314.65;2091158;85;21393;-81
2022/03/21 05:22:02;;;;;;;33.03;17.13;;;;;;;-0.98;46.61;101316.00;2090530;85;21042;-80
2022/03/21 05:31:41;;;;;;;40.80;22.77;;;;;;;-2.43;50.62;101329.70;2090988;85;21014;-83
2022/03/21 05:38:00;;;;;;;32.87;17.13;;;;;;;-2.75;52.49;101334.02;2090819;85;21323;-84
2022/03/21 05:41:00;;;;;;;33.57;17.30;;;;;;;-2.72;53.21;101331.78;2093151;85;21538;-83
2022/03/21 05:44:01;;;;;;;180.43;24.63;;;;;;;-2.64;53.69;101331.30;2092774;84;21113;-79
2022/03/21 05:47:02;;;;;;;119.13;21.70;;;;;;;-2.51;54.20;101330.94;2091441;84;21014;-83
2022/03/21 05:50:02;;;;;;;38.73;18.20;;;;;;;-2.40;54.34;101332.56;2091774;84;21014;-83
2022/03/21 05:53:03;;;;;;;33.40;17.23;;;;;;;-2.18;54.90;101338.58;2092439;84;21616;-83
2022/03/21 05:56:04;;;;;;;31.07;16.73;;;;;;;-1.97;55.29;101337.81;2092266;84;21053;-84
2022/03/21 06:02:24;;;;;;;49.07;19.93;;;;;;;-1.62;55.32;101330.21;2089985;84;21058;-81
2022/03/21 06:05:25;;;;;;;240.67;33.03;;;;;;;-1.36;55.27;101332.40;2090833;85;21030;-80
2022/03/21 06:08:25;;;;;;;61.93;19.57;;;;;;;-1.27;55.26;101336.24;2091507;84;21358;-78
2022/03/21 06:11:26;;;;;;;36.20;17.33;;;;;;;-1.16;55.18;101336.00;2114433;84;21376;-82
2022/03/21 06:14:27;;;;;;;38.60;18.43;;;;;;;-0.95;55.07;101340.65;2115918;84;21094;-82
2022/03/21 06:17:27;;;;;;;54.93;19.17;;;;;;;-0.70;55.29;101337.16;2115859;84;20986;-78
2022/03/21 06:20:28;;;;;;;39.50;17.60;;;;;;;-0.41;54.98;101339.02;2107641;84;21449;-82
2022/03/21 06:23:28;;;;;;;36.67;18.30;;;;;;;-0.15;54.97;101346.22;2115442;84;21001;-81
2022/03/21 06:26:29;;;;;;;227.00;29.93;;;;;;;0.09;54.58;101346.72;2119784;84;21061;-84
2022/03/21 06:29:29;;;;;;;56.73;22.37;;;;;;;0.28;54.32;101343.80;2123355;84;21046;-80
2022/03/21 06:32:30;;;;;;;135.33;26.30;;;;;;;0.43;54.20;101341.36;2123159;84;21384;-82
2022/03/21 06:35:31;;;;;;;99.53;25.47;;;;;;;0.56;53.66;101341.70;2110434;84;21927;-85
2022/03/21 06:38:31;;;;;;;102.30;29.23;;;;;;;0.76;53.63;101341.31;2110930;84;21515;-82
2022/03/21 06:41:32;;;;;;;75.87;27.83;;;;;;;1.16;52.85;101342.86;2109784;83;21304;-83
2022/03/21 06:44:32;;;;;;;729.70;74.60;;;;;;;1.56;52.26;101339.91;2117705;84;21002;-81
2022/03/21 06:47:33;;;;;;;109.53;31.60;;;;;;;1.95;52.40;101337.70;2118008;84;20942;-82
2022/03/21 06:50:39;;;;;;;62.40;27.47;;;;;;;2.29;51.64;101337.21;2118010;84;20974;-81
2022/03/21 06:53:40;;;;;;;68.73;28.63;;;;;;;2.62;50.76;101334.00;2117431;84;21085;-82
2022/03/21 06:56:41;;;;;;;878.47;84.27;;;;;;;3.00;50.01;101331.07;2117488;84;21157;-83
2022/03/21 06:59:42;;;;;;;103.57;25.50;;;;;;;3.41;49.42;101334.39;2116274;84;21349;-83
2022/03/21 07:02:42;;;;;;;38.67;21.83;;;;;;;3.72;48.17;101330.91;2114661;84;21025;-83
2022/03/21 07:05:43;;;;;;;57.57;21.13;;;;;;;4.20;47.44;101335.87;2108433;83;21065;-83
2022/03/21 07:08:51;;;;;;;35.70;21.00;;;;;;;4.63;47.80;101336.17;2109510;83;20974;-82
2022/03/21 07:11:46;;;;;;;38.40;20.50;;;;;;;5.02;45.33;101333.94;2117054;83;21413;-82
2022/03/21 07:14:48;;;;;;;38.93;20.57;;;;;;;5.35;44.74;101334.63;2119500;84;21038;-83
2022/03/21 07:17:49;;;;;;;30.07;19.70;;;;;;;5.67;44.42;101328.74;2123791;84;21472;-82
2022/03/21 07:20:50;;;;;;;114.90;25.17;;;;;;;6.01;43.95;101335.02;2103526;83;21002;-82
2022/03/21 07:23:51;;;;;;;52.90;20.00;;;;;;;6.30;42.69;101331.48;2076792;85;21014;-80
2022/03/21 07:26:51;;;;;;;199.67;26.00;;;;;;;6.62;42.28;101320.67;2078397;85;21058;-83
2022/03/21 07:29:52;;;;;;;38.47;20.70;;;;;;;6.87;41.06;101324.89;2102040;84;21006;-82
2022/03/21 07:32:52;;;;;;;39.07;18.93;;;;;;;7.15;40.51;101319.83;2116143;83;21182;-83
2022/03/21 07:35:53;;;;;;;33.37;18.90;;;;;;;7.38;39.88;101323.51;2105459;84;20998;-82
2022/03/21 07:38:53;;;;;;;28.10;18.70;;;;;;;7.53;39.26;101325.78;2117464;84;21479;-85
2022/03/21 07:42:00;;;;;;;30.93;19.03;;;;;;;7.72;38.46;101323.03;2100353;84;21049;-83
2022/03/21 07:48:17;;;;;;;28.70;18.67;;;;;;;8.31;38.31;101326.73;2098457;84;21016;-83
2022/03/21 07:51:18;;;;;;;25.17;16.50;;;;;;;8.53;36.91;101321.13;2119008;84;20998;-82
2022/03/21 07:54:18;;;;;;;29.40;17.33;;;;;;;8.76;36.58;101322.11;2122658;84;20966;-82
2022/03/21 07:57:19;;;;;;;27.67;17.07;;;;;;;8.90;36.28;101321.20;2112428;84;21101;-83
2022/03/21 08:00:19;;;;;;;27.87;16.77;;;;;;;9.10;35.96;101324.05;2116808;84;20966;-84
2022/03/21 08:03:21;;;;;;;93.40;20.33;;;;;;;9.30;35.48;101320.86;2109587;84;21019;-82
2022/03/21 08:06:21;;;;;;;32.27;14.97;;;;;;;9.49;34.64;101315.86;2118668;83;21349;-82
2022/03/21 08:09:24;;;;;;;24.77;14.30;;;;;;;9.65;33.02;101316.73;2123337;83;20978;-84
2022/03/21 08:12:24;;;;;;;68.43;17.43;;;;;;;9.77;33.05;101314.38;2119773;84;21404;-83
2022/03/21 08:15:26;;;;;;;821.43;76.73;;;;;;;9.91;32.62;101309.91;2115090;84;21018;-82
2022/03/21 08:18:27;;;;;;;28.43;15.60;;;;;;;10.07;32.58;101307.30;2108687;83;21069;-82
2022/03/21 08:21:28;;;;;;;70.70;17.93;;;;;;;10.21;32.47;101314.58;2108853;84;21021;-83
2022/03/21 08:24:33;;;;;;;28.37;14.23;;;;;;;10.43;31.52;101316.22;2122454;84;21085;-83
2022/03/21 08:27:31;;;;;;;81.83;17.47;;;;;;;10.55;31.04;101313.34;2106592;84;21084;-80
2022/03/21 08:30:35;;;;;;;17.87;11.73;;;;;;;10.74;31.43;101312.55;2108637;84;21381;-80
2022/03/21 08:33:36;;;;;;;17.52;11.25;;;;;;;10.82;29.50;101316.03;2114595;84;21502;-83
2022/03/21 08:36:36;;;;;;;18.07;11.00;;;;;;;10.84;29.78;101313.50;2115742;84;20958;-84
2022/03/21 08:39:37;;;;;;;15.03;10.43;;;;;;;10.91;29.48;101310.78;2109768;84;21426;-81
2022/03/21 08:42:37;;;;;;;19.40;11.63;;;;;;;10.99;29.24;101308.13;2115045;84;21030;-83
2022/03/21 08:45:40;;;;;;;12.87;10.17;;;;;;;11.01;29.34;101309.10;2111063;84;20987;-84
2022/03/21 08:51:59;;;;;;;116.45;17.20;;;;;;;11.06;29.12;101310.22;2115274;84;21018;-83
2022/03/21 08:55:00;;;;;;;142.68;19.77;;;;;;;11.33;28.53;101312.00;2117569;84;20978;-84
2022/03/21 08:58:00;;;;;;;21.33;10.68;;;;;;;11.44;28.60;101306.45;2121405;83;21001;-85
2022/03/21 09:01:01;;;;;;;15.23;10.08;;;;;;;11.53;27.80;101306.41;2111330;83;21070;-86
2022/03/21 09:07:08;;;;;;;68.65;13.72;;;;;;;11.58;27.39;101299.67;2096206;84;21545;-84
2022/03/21 09:10:11;;;;;;;23.35;8.80;;;;;;;11.67;26.64;101296.17;2117393;84;21106;-84
2022/03/21 09:13:10;;;;;;;16.52;8.80;;;;;;;11.68;26.76;101299.27;2115546;84;21081;-84
2022/03/21 09:16:11;;;;;;;16.90;9.60;;;;;;;11.68;26.83;101298.86;2111542;84;20998;-82
2022/03/21 09:19:12;;;;;;;18.00;9.80;;;;;;;11.80;26.97;101294.23;2121427;84;20978;-78
2022/03/21 09:22:12;;;;;;;11.48;8.90;;;;;;;11.85;26.55;101299.67;2115686;84;21041;-78
2022/03/21 09:25:13;;;;;;;16.87;8.50;;;;;;;11.89;26.25;101302.91;2110495;84;21485;-79
2022/03/21 09:31:16;;;;;;;11.40;8.80;;;;;;;12.01;25.60;101293.41;2097312;84;21029;-80
2022/03/21 09:34:17;;;;;;;26.73;9.88;;;;;;;12.03;25.53;101278.25;2115782;84;21666;-82
2022/03/21 09:37:18;;;;;;;15.00;9.00;;;;;;;12.00;25.83;101283.77;2115598;84;20978;-82
2022/03/21 09:40:20;;;;;;;16.57;10.18;;;;;;;12.03;25.73;101278.25;2109971;84;20998;-84
2022/03/21 09:43:20;;;;;;;15.20;10.13;;;;;;;12.13;25.53;101281.75;2123479;84;21174;-85
2022/03/21 09:46:21;;;;;;;16.17;11.22;;;;;;;12.13;25.44;101277.83;2119888;84;20990;-84
2022/03/21 09:49:23;;;;;;;20.82;10.03;;;;;;;12.18;25.58;101273.24;2110669;83;21009;-84
2022/03/21 09:52:23;;;;;;;17.25;9.80;;;;;;;12.13;24.38;101279.14;2115192;84;20991;-84
2022/03/21 09:55:25;;;;;;;27.48;10.10;;;;;;;12.18;25.05;101275.86;2113057;84;21073;-84
2022/03/21 09:58:27;;;;;;;56.13;11.40;;;;;;;12.20;24.54;101271.17;2111913;83;21397;-85
2022/03/21 10:01:29;;;;;;;16.52;10.23;;;;;;;12.29;24.91;101274.61;2116574;84;21045;-82
2022/03/21 10:04:31;;;;;;;15.20;10.18;;;;;;;12.41;25.22;101263.34;2086342;84;21493;-83
2022/03/21 10:07:32;;;;;;;12.90;9.20;;;;;;;12.53;25.29;101261.66;2109885;84;20963;-84
2022/03/21 10:13:35;;;;;;;20.00;10.13;;;;;;;12.61;24.82;101261.16;2095154;84;21038;-85
2022/03/21 10:16:36;;;;;;;9.15;8.18;;;;;;;12.72;25.05;101255.94;2110341;84;21010;-84
2022/03/21 10:19:39;;;;;;;9.93;8.50;;;;;;;12.88;24.19;101248.70;2109386;83;21063;-82
2022/03/21 10:22:43;;;;;;;9.60;8.60;;;;;;;12.76;23.75;101236.89;2110208;84;21058;-82
2022/03/21 10:28:44;;;;;;;10.50;8.73;;;;;;;12.85;23.79;101235.06;2093904;84;21035;-82
2022/03/21 10:31:46;;;;;;;12.33;9.13;;;;;;;12.82;23.84;101230.11;2116998;84;21476;-80
2022/03/21 10:34:47;;;;;;;15.83;9.70;;;;;;;12.84;23.44;101233.69;2118305;84;20978;-82
2022/03/21 10:37:47;;;;;;;18.62;8.95;;;;;;;12.81;23.51;101229.22;2118079;84;21046;-85
2022/03/21 10:40:48;;;;;;;12.07;8.73;;;;;;;13.00;23.37;101230.84;2117936;84;21009;-84
2022/03/21 10:43:50;;;;;;;12.30;9.03;;;;;;;13.07;22.98;101230.29;2123315;84;21393;-85
2022/03/21 10:46:51;;;;;;;11.63;9.03;;;;;;;13.08;22.94;101225.52;2110218;84;21002;-85
2022/03/21 10:49:52;;;;;;;11.03;8.98;;;;;;;13.06;22.62;101219.33;2116587;84;21057;-84
2022/03/21 10:52:52;;;;;;;12.07;9.70;;;;;;;13.11;22.65;101219.09;2116677;84;20998;-83
2022/03/21 10:55:53;;;;;;;14.55;10.55;;;;;;;13.06;22.87;101220.64;2108081;83;21280;-84
2022/03/21 10:58:53;;;;;;;12.60;10.90;;;;;;;13.58;22.87;101221.36;2115656;83;21017;-84
2022/03/21 11:01:54;;;;;;;12.82;10.53;;;;;;;13.81;22.71;101215.64;2108970;83;21468;-84
2022/03/21 11:04:54;;;;;;;13.28;11.22;;;;;;;13.60;22.74;101204.83;2116298;84;21486;-83
2022/03/21 11:07:55;;;;;;;13.72;11.03;;;;;;;13.44;22.94;101205.52;2115734;84;21101;-84
2022/03/21 11:10:56;;;;;;;17.92;10.95;;;;;;;13.36;23.12;101203.50;2114939;83;21057;-83
2022/03/21 11:13:56;;;;;;;16.07;12.25;;;;;;;13.45;23.39;101196.39;2111823;84;21038;-84
2022/03/21 11:16:57;;;;;;;17.23;13.22;;;;;;;13.42;23.04;101188.41;2113390;84;21292;-80
2022/03/21 11:19:57;;;;;;;17.80;13.50;;;;;;;13.55;23.02;101192.38;2117335;84;20959;-85
2022/03/21 11:22:58;;;;;;;17.95;11.45;;;;;;;13.63;23.55;101190.93;2122481;83;21018;-83
2022/03/21 11:25:59;;;;;;;19.15;12.53;;;;;;;13.63;21.58;101183.95;2123097;84;20978;-84
2022/03/21 11:29:00;;;;;;;18.50;11.20;;;;;;;13.59;22.08;101185.09;2122623;84;21499;-84
2022/03/21 11:32:01;;;;;;;17.60;12.30;;;;;;;13.50;22.63;101182.13;2107514;83;21013;-81
2022/03/21 11:38:04;;;;;;;30.77;11.83;;;;;;;13.56;22.22;101169.23;2093975;84;21077;-83
2022/03/21 11:41:04;;;;;;;13.55;11.10;;;;;;;13.59;22.25;101171.55;2117216;84;20998;-83
2022/03/21 11:44:05;;;;;;;13.55;9.90;;;;;;;13.63;22.45;101169.52;2088366;84;21358;-83
2022/03/21 11:47:05;;;;;;;13.98;9.55;;;;;;;13.76;22.41;101155.10;2118198;84;20974;-82
2022/03/21 11:50:06;;;;;;;16.17;9.10;;;;;;;13.87;22.16;101156.41;2117218;84;21034;-83
2022/03/21 11:53:07;;;;;;;14.23;9.05;;;;;;;13.81;21.72;101146.97;2114800;83;20975;-84
2022/03/21 11:56:08;;;;;;;10.93;9.05;;;;;;;13.93;21.69;101143.91;2105448;84;21041;-83
2022/03/21 11:59:08;;;;;;;12.25;9.70;;;;;;;14.02;21.87;101138.56;2123514;84;20954;-82
2022/03/21 12:02:08;;;;;;;11.73;9.20;;;;;;;14.09;21.31;101134.83;2118622;84;21038;-81
2022/03/21 12:05:10;;;;;;;12.85;8.70;;;;;;;14.09;21.31;101134.83;2116140;84;20982;-82
2022/03/21 12:08:10;;;;;;;13.53;8.75;;;;;;;14.17;20.83;101136.88;2106535;84;21068;-82
2022/03/21 12:11:11;;;;;;;12.43;9.33;;;;;;;14.02;20.43;101127.16;2115399;84;21037;-82
2022/03/21 12:14:11;;;;;;;11.68;8.33;;;;;;;14.00;21.15;101131.05;2107288;83;20990;-84
2022/03/21 12:20:16;;;;;;;12.10;8.13;;;;;;;14.08;20.72;101122.54;2072413;84;21034;-83
2022/03/21 12:23:17;;;;;;;12.15;8.80;;;;;;;14.12;20.71;101112.61;2113919;84;21044;-84
2022/03/21 12:26:17;;;;;;;9.43;8.43;;;;;;;14.07;20.85;101114.19;2116645;84;21044;-85
2022/03/21 12:29:33;;;;;;;12.55;8.05;;;;;;;14.12;20.92;101111.30;2116227;84;20962;-85
2022/03/21 12:32:34;;;;;;;18.05;7.35;;;;;;;14.14;20.83;101104.36;2123108;83;21057;-82
2022/03/21 12:35:35;;;;;;;14.35;7.65;;;;;;;14.16;19.97;101094.37;2119196;84;21017;-82
2022/03/21 12:38:36;;;;;;;7.97;7.17;;;;;;;14.24;20.58;101097.25;2116630;84;21457;-82
2022/03/21 12:41:37;;;;;;;13.72;7.60;;;;;;;14.35;20.01;101091.50;2115418;84;21233;-83
2022/03/21 12:44:37;;;;;;;10.45;7.60;;;;;;;14.37;20.63;101090.24;2116938;84;21018;-82
2022/03/21 12:47:38;;;;;;;30.85;10.15;;;;;;;14.36;20.22;101085.83;2101263;84;20974;-83
2022/03/21 12:50:38;;;;;;;13.32;8.68;;;;;;;14.37;20.58;101081.47;2123482;84;20967;-84
2022/03/21 12:53:45;;;;;;;95.13;13.87;;;;;;;14.44;20.34;101073.86;2120678;84;21118;-83
2022/03/21 12:56:45;;;;;;;237.60;23.80;;;;;;;14.43;20.47;101081.70;2109601;83;21277;-85
2022/03/21 12:59:46;;;;;;;12.95;8.80;;;;;;;14.38;20.39;101074.95;2120100;84;21033;-84
2022/03/21 13:02:47;;;;;;;11.63;8.50;;;;;;;14.42;20.63;101072.00;2117939;84;21077;-80
2022/03/21 13:12:12;;;;;;;10.72;8.20;;;;;;;14.31;19.92;101067.72;2097948;84;21005;-84
2022/03/21 13:15:13;;;;;;;12.13;8.23;;;;;;;14.21;20.32;101062.59;2094747;83;21427;-82
2022/03/21 13:18:13;;;;;;;23.45;9.35;;;;;;;14.25;20.25;101058.32;2107070;83;21024;-81
2022/03/21 13:21:14;;;;;;;22.13;8.55;;;;;;;14.31;20.36;101053.27;2079472;85;21034;-83
2022/03/21 13:24:14;;;;;;;12.53;7.90;;;;;;;14.28;20.28;101056.69;2077422;85;20990;-81
2022/03/21 13:27:15;;;;;;;18.48;8.35;;;;;;;14.29;20.56;101054.95;2096562;84;21721;-80
2022/03/21 13:30:15;;;;;;;228.70;23.10;;;;;;;14.19;20.59;101047.63;2104453;84;21346;-81
2022/03/21 13:33:16;;;;;;;15.40;8.43;;;;;;;14.32;20.73;101044.54;2123111;84;20946;-81
2022/03/21 13:36:21;;;;;;;11.65;7.85;;;;;;;14.32;20.73;101044.54;2118946;83;20983;-80
2022/03/21 13:39:26;;;;;;;145.53;17.40;;;;;;;14.38;20.48;101042.53;2123095;84;21045;-78
2022/03/21 13:42:24;;;;;;;13.18;8.88;;;;;;;14.38;20.38;101039.48;2119565;83;21037;-82
2022/03/21 13:45:27;;;;;;;22.77;8.35;;;;;;;14.35;20.39;101034.13;2110348;83;21017;-83
2022/03/21 13:48:27;;;;;;;37.78;9.13;;;;;;;14.35;20.48;101033.70;2117714;83;21121;-82
2022/03/21 13:51:29;;;;;;;10.58;7.80;;;;;;;14.40;20.42;101029.91;2124044;84;20995;-81
2022/03/21 13:54:30;;;;;;;9.68;7.85;;;;;;;14.45;20.44;101032.71;2124078;84;21057;-83
2022/03/21 13:57:30;;;;;;;20.08;9.33;;;;;;;14.41;20.39;101025.12;2120166;84;20990;-80
2022/03/21 14:00:31;;;;;;;14.43;9.00;;;;;;;14.35;20.35;101027.56;2112144;84;21061;-80
2022/03/21 14:03:32;;;;;;;21.77;9.30;;;;;;;14.35;20.73;101024.51;2117722;83;20959;-79
2022/03/21 14:06:32;;;;;;;21.10;9.48;;;;;;;14.43;20.38;101016.90;2115375;83;21048;-80
2022/03/21 14:09:33;;;;;;;16.20;8.53;;;;;;;14.42;20.57;101013.80;2105661;83;21250;-80
2022/03/21 14:12:33;;;;;;;14.50;8.65;;;;;;;14.35;20.80;101016.63;2110145;83;21420;-81
2022/03/21 14:15:34;;;;;;;11.45;8.10;;;;;;;14.35;20.54;101008.75;2116253;84;20986;-81
2022/03/21 14:18:35;;;;;;;10.58;7.97;;;;;;;14.30;20.52;101005.09;2117614;84;20970;-79
2022/03/21 14:21:36;;;;;;;64.53;13.13;;;;;;;14.25;20.86;101005.78;2114598;84;21104;-79
2022/03/21 14:24:37;;;;;;;27.05;8.30;;;;;;;14.28;20.90;101008.51;2114964;84;21461;-79
2022/03/21 14:27:37;;;;;;;11.25;7.65;;;;;;;14.28;20.81;100998.00;2106118;84;21054;-78
2022/03/21 14:30:38;;;;;;;8.55;7.08;;;;;;;14.27;20.75;100998.84;2112168;84;20978;-81
2022/03/21 14:33:38;;;;;;;11.45;8.25;;;;;;;14.22;20.68;100997.81;2121589;84;21378;-80
2022/03/21 14:36:39;;;;;;;9.03;8.10;;;;;;;14.16;20.95;100999.83;2116910;84;21475;-83